Time;durP1;ratioP1;P1;durP2;ratioP2;P2;SDS_P1;SDS_P2;PMS_P1;PMS_P2;Temp;Humidity;BMP_temperature;BMP_pressure;BME280_temperature;BME280_humidity;BME280_pressure;Samples;Min_cycle;Max_cycle;Signal;HPM_P1;HPM_P2
2024/03/16 00:01:25;;;;;;;3.37;1.37;;;;;;;;;;5071788;28;20545;-57
2024/03/16 00:03:50;;;;;;;4.40;1.40;;;;;;;;;;5072088;28;20056;-59
2024/03/16 00:06:15;;;;;;;3.83;1.40;;;;;;;;;;5065130;28;20074;-58
2024/03/16 00:08:40;;;;;;;4.95;1.90;;;;;;;;;;5070749;28;20493;-58
2024/03/16 00:11:05;;;;;;;6.30;1.63;;;;;;;;;;5068535;28;20469;-58
2024/03/16 00:13:30;;;;;;;4.18;1.48;;;;;;;;;;5068471;28;20059;-59
2024/03/16 00:15:56;;;;;;;3.92;1.40;;;;;;;;;;5063895;28;20040;-58
2024/03/16 00:18:21;;;;;;;4.60;1.60;;;;;;;;;;5070880;28;20024;-59
2024/03/16 00:20:46;;;;;;;5.50;1.67;;;;;;;;;;5063600;28;20025;-59
2024/03/16 00:23:11;;;;;;;3.83;1.50;;;;;;;;;;5063562;28;20529;-58
2024/03/16 00:25:37;;;;;;;4.68;1.70;;;;;;;;;;5068905;28;20040;-58
2024/03/16 00:28:02;;;;;;;6.93;1.73;;;;;;;;;;5064115;28;20036;-59
2024/03/16 00:30:27;;;;;;;3.80;1.40;;;;;;;;;;5061875;28;20397;-59
2024/03/16 00:32:54;;;;;;;3.83;1.47;;;;;;;;;;5067512;28;20028;-58
2024/03/16 00:35:19;;;;;;;4.60;1.45;;;;;;;;;;5069497;28;20620;-60
2024/03/16 00:37:45;;;;;;;4.97;1.70;;;;;;;;;;5070281;28;20021;-60
2024/03/16 00:40:10;;;;;;;4.18;1.60;;;;;;;;;;5069233;28;20020;-59
2024/03/16 00:42:35;;;;;;;5.63;1.83;;;;;;;;;;5070116;28;20411;-59
2024/03/16 00:45:01;;;;;;;4.80;1.50;;;;;;;;;;5068463;28;20032;-60
2024/03/16 00:47:26;;;;;;;4.22;1.55;;;;;;;;;;5071500;28;20017;-60
2024/03/16 00:49:52;;;;;;;5.03;1.50;;;;;;;;;;5071295;28;20485;-59
2024/03/16 00:52:17;;;;;;;3.50;1.35;;;;;;;;;;5068718;28;20499;-59
2024/03/16 00:54:42;;;;;;;4.60;1.33;;;;;;;;;;5070624;28;20024;-59
2024/03/16 00:57:07;;;;;;;4.33;1.60;;;;;;;;;;5071312;28;20511;-59
2024/03/16 00:59:33;;;;;;;4.97;1.50;;;;;;;;;;5070415;28;20104;-59
2024/03/16 01:01:58;;;;;;;6.35;1.42;;;;;;;;;;5070983;28;20108;-60
2024/03/16 01:04:23;;;;;;;6.33;1.50;;;;;;;;;;5070984;28;20008;-58
2024/03/16 01:06:49;;;;;;;4.70;1.40;;;;;;;;;;5070237;28;20088;-58
2024/03/16 01:09:16;;;;;;;4.05;1.35;;;;;;;;;;5071607;28;20040;-58
2024/03/16 01:11:41;;;;;;;3.75;1.40;;;;;;;;;;5070468;28;20498;-58
2024/03/16 01:14:08;;;;;;;4.80;1.50;;;;;;;;;;5069234;28;20082;-57
2024/03/16 01:16:33;;;;;;;4.97;1.50;;;;;;;;;;5070278;28;20755;-59
2024/03/16 01:18:58;;;;;;;3.92;1.45;;;;;;;;;;5070411;28;20047;-59
2024/03/16 01:21:24;;;;;;;3.70;1.40;;;;;;;;;;5065732;28;20087;-59
2024/03/16 01:23:49;;;;;;;4.65;1.70;;;;;;;;;;5070520;28;20024;-59
2024/03/16 01:26:14;;;;;;;4.32;1.48;;;;;;;;;;5069439;28;20023;-59
2024/03/16 01:28:39;;;;;;;5.60;1.33;;;;;;;;;;5069632;28;20377;-59
2024/03/16 01:31:04;;;;;;;5.23;1.30;;;;;;;;;;5069186;28;20013;-57
2024/03/16 01:33:29;;;;;;;3.47;1.40;;;;;;;;;;5070485;28;20366;-59
2024/03/16 01:35:54;;;;;;;3.95;1.48;;;;;;;;;;5070579;28;20028;-58
2024/03/16 01:38:20;;;;;;;4.57;1.48;;;;;;;;;;5070621;28;20031;-59
2024/03/16 01:40:46;;;;;;;4.38;1.20;;;;;;;;;;5062587;28;20444;-58
2024/03/16 01:43:12;;;;;;;3.83;1.38;;;;;;;;;;5069797;28;20533;-58
2024/03/16 01:45:38;;;;;;;3.95;1.40;;;;;;;;;;5066349;28;20020;-57
2024/03/16 01:48:04;;;;;;;5.13;1.50;;;;;;;;;;5068030;28;20377;-58
2024/03/16 01:50:29;;;;;;;5.50;1.40;;;;;;;;;;5061577;28;20497;-59
2024/03/16 01:52:54;;;;;;;6.17;1.70;;;;;;;;;;5068978;28;20031;-59
2024/03/16 01:55:20;;;;;;;3.90;1.43;;;;;;;;;;5065057;28;20099;-58
2024/03/16 01:57:45;;;;;;;4.43;1.40;;;;;;;;;;5072108;28;20435;-57
2024/03/16 02:00:11;;;;;;;3.55;1.27;;;;;;;;;;5072559;28;20109;-58
2024/03/16 02:02:37;;;;;;;3.88;1.25;;;;;;;;;;5071985;28;20025;-58
2024/03/16 02:05:05;;;;;;;5.38;1.80;;;;;;;;;;5072861;28;20100;-59
2024/03/16 02:07:34;;;;;;;6.72;1.50;;;;;;;;;;5075806;28;20051;-58
2024/03/16 02:10:00;;;;;;;4.28;1.45;;;;;;;;;;5073817;28;20045;-58
2024/03/16 02:12:25;;;;;;;5.07;1.58;;;;;;;;;;5071690;28;20108;-58
2024/03/16 02:14:51;;;;;;;5.18;1.73;;;;;;;;;;5068202;28;20062;-58
2024/03/16 02:17:16;;;;;;;6.97;1.70;;;;;;;;;;5069615;28;20029;-60
2024/03/16 02:19:42;;;;;;;5.45;1.88;;;;;;;;;;5070076;28;20442;-59
2024/03/16 02:22:08;;;;;;;5.00;1.83;;;;;;;;;;5072521;28;20017;-58
2024/03/16 02:24:33;;;;;;;6.85;2.03;;;;;;;;;;5069593;28;20438;-60
2024/03/16 02:26:59;;;;;;;4.20;1.60;;;;;;;;;;5069637;28;20096;-58
2024/03/16 02:29:24;;;;;;;5.57;1.65;;;;;;;;;;5062882;28;20025;-58
2024/03/16 02:31:49;;;;;;;4.78;1.70;;;;;;;;;;5069898;28;20032;-59
2024/03/16 02:34:16;;;;;;;4.80;1.60;;;;;;;;;;5061538;28;20032;-58
2024/03/16 02:36:41;;;;;;;4.20;1.50;;;;;;;;;;5066385;28;20024;-59
2024/03/16 02:39:06;;;;;;;4.57;1.58;;;;;;;;;;5069923;28;20032;-57
2024/03/16 02:41:31;;;;;;;4.20;1.40;;;;;;;;;;5070371;28;20393;-58
2024/03/16 02:43:57;;;;;;;4.28;1.40;;;;;;;;;;5069718;28;20033;-59
2024/03/16 02:46:22;;;;;;;7.38;1.70;;;;;;;;;;5069681;28;20027;-58
2024/03/16 02:48:48;;;;;;;5.03;1.70;;;;;;;;;;5069378;28;20576;-58
2024/03/16 02:51:13;;;;;;;6.07;1.65;;;;;;;;;;5065896;28;20086;-57
2024/03/16 02:53:38;;;;;;;4.28;1.50;;;;;;;;;;5068306;28;20471;-59
2024/03/16 02:56:04;;;;;;;4.25;1.48;;;;;;;;;;5072024;28;20012;-58
2024/03/16 02:58:29;;;;;;;4.38;1.45;;;;;;;;;;5071551;28;20055;-60
2024/03/16 03:00:55;;;;;;;3.77;1.40;;;;;;;;;;5066917;28;20020;-59
2024/03/16 03:03:20;;;;;;;4.65;1.58;;;;;;;;;;5074754;28;20031;-59
2024/03/16 03:05:46;;;;;;;4.50;1.40;;;;;;;;;;5072628;28;20044;-59
2024/03/16 03:08:11;;;;;;;4.97;1.60;;;;;;;;;;5069489;28;20094;-58
2024/03/16 03:10:37;;;;;;;5.30;1.60;;;;;;;;;;5072737;28;20079;-58
2024/03/16 03:13:03;;;;;;;6.20;1.50;;;;;;;;;;5073140;28;20013;-58
2024/03/16 03:15:28;;;;;;;4.53;1.58;;;;;;;;;;5073147;28;20019;-60
2024/03/16 03:17:53;;;;;;;4.40;1.52;;;;;;;;;;5072999;28;20546;-59
2024/03/16 03:20:20;;;;;;;4.25;1.52;;;;;;;;;;5075146;28;20074;-59
2024/03/16 03:22:46;;;;;;;3.67;1.30;;;;;;;;;;5073355;28;20032;-59
2024/03/16 03:25:11;;;;;;;4.53;1.40;;;;;;;;;;5075702;28;20025;-59
2024/03/16 03:27:36;;;;;;;5.27;1.70;;;;;;;;;;5076448;28;20044;-59
2024/03/16 03:30:01;;;;;;;4.57;1.37;;;;;;;;;;5082509;28;20025;-58
2024/03/16 03:32:26;;;;;;;4.07;1.40;;;;;;;;;;5073814;28;20021;-58
2024/03/16 03:34:51;;;;;;;4.90;1.30;;;;;;;;;;5072964;28;20089;-59
2024/03/16 03:37:17;;;;;;;6.37;1.60;;;;;;;;;;5071952;28;20017;-59
2024/03/16 03:39:42;;;;;;;5.45;1.35;;;;;;;;;;5068449;28;20114;-58
2024/03/16 03:42:07;;;;;;;4.47;1.37;;;;;;;;;;5072726;28;20020;-59
2024/03/16 03:44:38;;;;;;;3.78;1.20;;;;;;;;;;5071290;28;20107;-58
2024/03/16 03:47:03;;;;;;;3.88;1.30;;;;;;;;;;5072684;28;20060;-57
2024/03/16 03:49:40;;;;;;;4.47;1.40;;;;;;;;;;5072845;28;20489;-59
2024/03/16 03:52:05;;;;;;;4.93;1.40;;;;;;;;;;5071803;28;20491;-60
2024/03/16 03:54:31;;;;;;;3.83;1.40;;;;;;;;;;5069492;28;20025;-58
2024/03/16 03:56:56;;;;;;;4.78;1.48;;;;;;;;;;5071469;28;20021;-59
2024/03/16 03:59:21;;;;;;;7.03;1.50;;;;;;;;;;5072524;28;20032;-58
2024/03/16 04:01:47;;;;;;;6.32;1.30;;;;;;;;;;5078959;28;20556;-59
2024/03/16 04:04:12;;;;;;;3.73;1.30;;;;;;;;;;5088920;28;20008;-58
2024/03/16 04:06:37;;;;;;;4.67;1.20;;;;;;;;;;5071827;28;21010;-58
2024/03/16 04:09:02;;;;;;;5.50;1.50;;;;;;;;;;5066573;28;20024;-59
2024/03/16 04:11:28;;;;;;;5.57;1.63;;;;;;;;;;5062937;28;20099;-58
2024/03/16 04:13:53;;;;;;;5.97;2.20;;;;;;;;;;5071422;28;20048;-58
2024/03/16 04:16:18;;;;;;;5.85;1.85;;;;;;;;;;5068191;28;20013;-59
2024/03/16 04:18:43;;;;;;;6.03;1.90;;;;;;;;;;5071037;28;20082;-58
2024/03/16 04:21:09;;;;;;;4.90;1.70;;;;;;;;;;5070188;28;20384;-59
2024/03/16 04:23:34;;;;;;;6.50;2.13;;;;;;;;;;5070999;28;20032;-59
2024/03/16 04:25:59;;;;;;;8.07;2.13;;;;;;;;;;5071502;28;20016;-58
2024/03/16 04:28:24;;;;;;;7.23;1.90;;;;;;;;;;5069647;28;20123;-58
2024/03/16 04:30:49;;;;;;;5.80;2.40;;;;;;;;;;5071702;28;20461;-58
2024/03/16 04:33:18;;;;;;;5.53;2.00;;;;;;;;;;5069828;28;20154;-59
2024/03/16 04:35:45;;;;;;;6.03;2.15;;;;;;;;;;5071106;28;20024;-58
2024/03/16 04:38:12;;;;;;;6.30;2.40;;;;;;;;;;5071740;28;20028;-57
2024/03/16 04:40:38;;;;;;;5.63;1.90;;;;;;;;;;5071721;28;20165;-58
2024/03/16 04:43:03;;;;;;;5.00;2.00;;;;;;;;;;5070430;28;20483;-58
2024/03/16 04:45:28;;;;;;;5.40;1.70;;;;;;;;;;5071783;28;20388;-59
2024/03/16 04:47:53;;;;;;;6.53;2.23;;;;;;;;;;5073632;28;20082;-59
2024/03/16 04:50:18;;;;;;;6.15;2.05;;;;;;;;;;5075513;28;20028;-58
2024/03/16 04:52:44;;;;;;;5.07;2.08;;;;;;;;;;5076406;28;20039;-59
2024/03/16 04:55:09;;;;;;;6.43;2.03;;;;;;;;;;5077246;28;20028;-59
2024/03/16 04:57:34;;;;;;;6.17;2.00;;;;;;;;;;5077312;28;20447;-59
2024/03/16 04:59:59;;;;;;;6.15;1.98;;;;;;;;;;5070785;28;20500;-57
2024/03/16 05:02:24;;;;;;;6.53;2.60;;;;;;;;;;5074788;28;20028;-58
2024/03/16 05:04:50;;;;;;;5.30;2.20;;;;;;;;;;5069576;28;20017;-59
2024/03/16 05:07:15;;;;;;;5.93;2.35;;;;;;;;;;5071711;28;20110;-58
2024/03/16 05:09:40;;;;;;;6.33;2.40;;;;;;;;;;5070860;28;20021;-58
2024/03/16 05:12:05;;;;;;;6.30;2.45;;;;;;;;;;5068171;28;20067;-58
2024/03/16 05:14:31;;;;;;;5.20;2.17;;;;;;;;;;5064096;28;20016;-57
2024/03/16 05:16:57;;;;;;;5.07;2.10;;;;;;;;;;5070401;28;20024;-57
2024/03/16 05:19:22;;;;;;;5.63;2.10;;;;;;;;;;5064601;28;20012;-59
2024/03/16 05:21:47;;;;;;;6.37;2.33;;;;;;;;;;5071813;28;20035;-59
2024/03/16 05:24:12;;;;;;;5.88;1.92;;;;;;;;;;5075771;28;20019;-59
2024/03/16 05:26:38;;;;;;;5.95;2.30;;;;;;;;;;5077753;28;20104;-59
2024/03/16 05:29:05;;;;;;;6.35;2.45;;;;;;;;;;5075115;28;20040;-60
2024/03/16 05:31:31;;;;;;;5.25;2.00;;;;;;;;;;5070414;28;20017;-59
2024/03/16 05:33:56;;;;;;;5.85;1.92;;;;;;;;;;5084465;28;20029;-58
2024/03/16 05:36:22;;;;;;;5.43;1.97;;;;;;;;;;5088237;28;20024;-58
2024/03/16 05:38:47;;;;;;;4.57;1.70;;;;;;;;;;5083274;28;20792;-58
2024/03/16 05:41:12;;;;;;;5.63;2.10;;;;;;;;;;5071575;28;20020;-57
2024/03/16 05:43:38;;;;;;;5.47;2.03;;;;;;;;;;5070969;28;20092;-58
2024/03/16 05:46:03;;;;;;;7.05;2.70;;;;;;;;;;5071016;28;20361;-58
2024/03/16 05:48:28;;;;;;;5.80;2.30;;;;;;;;;;5070948;28;20090;-58
2024/03/16 05:50:54;;;;;;;5.43;2.20;;;;;;;;;;5069240;28;20035;-57
2024/03/16 05:53:19;;;;;;;5.83;1.80;;;;;;;;;;5069917;28;20388;-57
2024/03/16 05:55:44;;;;;;;7.10;2.20;;;;;;;;;;5068984;28;20020;-58
2024/03/16 05:58:10;;;;;;;5.67;2.10;;;;;;;;;;5069598;28;20036;-59
2024/03/16 06:00:37;;;;;;;6.05;2.03;;;;;;;;;;5061413;28;20028;-59
2024/03/16 06:03:03;;;;;;;6.22;2.10;;;;;;;;;;5071187;28;20377;-58
2024/03/16 06:05:28;;;;;;;8.25;2.20;;;;;;;;;;5063280;28;20021;-57
2024/03/16 06:07:53;;;;;;;4.83;2.10;;;;;;;;;;5061026;28;20028;-59
2024/03/16 06:10:18;;;;;;;5.85;2.03;;;;;;;;;;5067500;28;20100;-58
2024/03/16 06:12:44;;;;;;;5.28;1.55;;;;;;;;;;5070336;28;20082;-58
2024/03/16 06:15:09;;;;;;;4.43;1.60;;;;;;;;;;5069483;28;20031;-59
2024/03/16 06:17:34;;;;;;;6.23;1.93;;;;;;;;;;5069584;28;20468;-59
2024/03/16 06:19:59;;;;;;;4.27;1.47;;;;;;;;;;5068923;28;20020;-58
2024/03/16 06:22:25;;;;;;;5.57;1.75;;;;;;;;;;5070427;28;20023;-57
2024/03/16 06:24:51;;;;;;;5.43;1.50;;;;;;;;;;5059556;28;20032;-58
2024/03/16 06:27:21;;;;;;;;;;;;;;;;;;5059217;28;20546;-58
2024/03/16 06:29:51;;;;;;;4.90;1.60;;;;;;;;;;5068586;28;20335;-57
2024/03/16 06:32:20;;;;;;;6.60;1.70;;;;;;;;;;5057287;28;20025;-60
2024/03/16 06:34:45;;;;;;;5.50;1.80;;;;;;;;;;5065826;28;20139;-58
2024/03/16 06:37:10;;;;;;;4.60;1.50;;;;;;;;;;5073288;28;20475;-58
2024/03/16 06:39:35;;;;;;;5.00;1.80;;;;;;;;;;5071851;28;20025;-58
2024/03/16 06:42:00;;;;;;;6.28;1.90;;;;;;;;;;5067226;28;20047;-58
2024/03/16 06:44:26;;;;;;;6.80;1.67;;;;;;;;;;5072994;28;20032;-58
2024/03/16 06:46:51;;;;;;;5.97;1.60;;;;;;;;;;5073487;28;20098;-59
2024/03/16 06:49:17;;;;;;;7.68;1.90;;;;;;;;;;5070636;28;20017;-58
2024/03/16 06:51:42;;;;;;;7.20;2.10;;;;;;;;;;5069157;28;20051;-58
2024/03/16 06:54:07;;;;;;;9.93;2.53;;;;;;;;;;5068804;28;20388;-57
2024/03/16 06:56:32;;;;;;;5.63;2.05;;;;;;;;;;5069964;28;20070;-58
2024/03/16 06:58:59;;;;;;;8.98;2.33;;;;;;;;;;5071023;28;20024;-58
2024/03/16 07:01:24;;;;;;;6.70;1.70;;;;;;;;;;5060151;28;20046;-58
2024/03/16 07:03:49;;;;;;;8.40;2.28;;;;;;;;;;5069216;28;20484;-58
2024/03/16 07:06:14;;;;;;;5.23;1.80;;;;;;;;;;5065459;28;20122;-58
2024/03/16 07:08:40;;;;;;;5.10;1.42;;;;;;;;;;5060929;28;20502;-59
2024/03/16 07:11:05;;;;;;;4.70;1.40;;;;;;;;;;5065761;28;20009;-58
2024/03/16 07:13:31;;;;;;;4.40;1.50;;;;;;;;;;5068321;28;20021;-59
2024/03/16 07:15:56;;;;;;;5.75;1.70;;;;;;;;;;5060941;28;20117;-59
2024/03/16 07:18:21;;;;;;;5.85;1.50;;;;;;;;;;5069283;28;20016;-58
2024/03/16 07:20:46;;;;;;;4.32;1.80;;;;;;;;;;5059053;28;20025;-58
2024/03/16 07:23:11;;;;;;;4.90;1.50;;;;;;;;;;5069392;28;20023;-59
2024/03/16 07:25:36;;;;;;;3.90;1.20;;;;;;;;;;5071261;28;20534;-57
2024/03/16 07:28:04;;;;;;;4.67;1.47;;;;;;;;;;5072025;28;20030;-57
2024/03/16 07:30:29;;;;;;;3.97;1.35;;;;;;;;;;5069165;28;20396;-57
2024/03/16 07:32:56;;;;;;;5.15;1.15;;;;;;;;;;5065517;28;20032;-59
2024/03/16 07:35:21;;;;;;;5.13;1.70;;;;;;;;;;5073916;28;20020;-59
2024/03/16 07:37:46;;;;;;;6.70;1.57;;;;;;;;;;5063763;28;20318;-61
2024/03/16 07:40:14;;;;;;;5.10;1.40;;;;;;;;;;5066949;28;20047;-58
2024/03/16 07:42:40;;;;;;;5.22;1.42;;;;;;;;;;5072469;28;20423;-59
2024/03/16 07:45:06;;;;;;;5.60;1.90;;;;;;;;;;5067066;28;20039;-60
2024/03/16 07:47:31;;;;;;;7.57;2.20;;;;;;;;;;5066591;28;20024;-57
2024/03/16 07:49:56;;;;;;;5.95;2.00;;;;;;;;;;5063602;28;20409;-59
2024/03/16 07:52:21;;;;;;;5.40;1.48;;;;;;;;;;5071742;28;20021;-58
2024/03/16 07:54:46;;;;;;;4.60;1.40;;;;;;;;;;5071890;28;20456;-58
2024/03/16 07:57:12;;;;;;;4.18;1.50;;;;;;;;;;5072074;28;20045;-58
2024/03/16 07:59:37;;;;;;;5.70;1.52;;;;;;;;;;5072436;28;20025;-58
2024/03/16 08:02:02;;;;;;;5.47;1.60;;;;;;;;;;5078467;28;20684;-59
2024/03/16 08:04:27;;;;;;;5.87;1.40;;;;;;;;;;5069748;28;20028;-58
2024/03/16 08:06:52;;;;;;;4.88;1.27;;;;;;;;;;5071920;28;20016;-59
2024/03/16 08:09:18;;;;;;;2.65;0.90;;;;;;;;;;5067374;28;20029;-59
2024/03/16 08:11:43;;;;;;;4.77;1.10;;;;;;;;;;5069647;28;20017;-58
2024/03/16 08:14:08;;;;;;;4.03;1.10;;;;;;;;;;5063606;28;20021;-58
2024/03/16 08:16:34;;;;;;;4.47;1.03;;;;;;;;;;5066039;28;20107;-61
2024/03/16 08:18:59;;;;;;;4.63;1.13;;;;;;;;;;5080132;28;20031;-59
2024/03/16 08:21:24;;;;;;;4.50;1.30;;;;;;;;;;5070612;28;20023;-59
2024/03/16 08:23:49;;;;;;;4.43;1.15;;;;;;;;;;5068584;28;20475;-59
2024/03/16 08:26:14;;;;;;;5.47;1.17;;;;;;;;;;5069026;28;20493;-58
2024/03/16 08:28:40;;;;;;;3.45;1.20;;;;;;;;;;5071438;28;20028;-59
2024/03/16 08:31:05;;;;;;;3.33;1.00;;;;;;;;;;5065780;28;20012;-59
2024/03/16 08:33:31;;;;;;;4.68;1.10;;;;;;;;;;5067125;28;20021;-59
2024/03/16 08:35:56;;;;;;;3.58;1.20;;;;;;;;;;5069679;28;20060;-57
2024/03/16 08:38:23;;;;;;;4.03;1.10;;;;;;;;;;5072210;28;20023;-58
2024/03/16 08:40:48;;;;;;;5.68;1.70;;;;;;;;;;5072532;28;20032;-60
2024/03/16 08:43:14;;;;;;;44.40;2.87;;;;;;;;;;5067561;28;20070;-61
2024/03/16 08:45:39;;;;;;;23.50;2.17;;;;;;;;;;5067481;28;20020;-62
2024/03/16 08:48:04;;;;;;;3.77;1.20;;;;;;;;;;5064257;28;20032;-60
2024/03/16 08:50:29;;;;;;;5.40;1.40;;;;;;;;;;5068930;28;20028;-60
2024/03/16 10:41:06;;;;;;;4.30;1.02;;;;;;;;;;5094010;27;20648;-60
2024/03/16 10:43:32;;;;;;;4.00;1.00;;;;;;;;;;5038220;28;20088;-61
2024/03/16 10:45:57;;;;;;;3.20;1.00;;;;;;;;;;5034710;28;20025;-61
2024/03/16 10:48:22;;;;;;;2.85;1.00;;;;;;;;;;5034702;28;20029;-62
2024/03/16 10:50:48;;;;;;;3.83;1.00;;;;;;;;;;5041952;28;20017;-61
2024/03/16 10:53:17;;;;;;;2.65;0.70;;;;;;;;;;5033850;28;20025;-62
2024/03/16 10:55:43;;;;;;;2.53;0.60;;;;;;;;;;5039207;28;20009;-62
2024/03/16 10:58:19;;;;;;;2.28;0.60;;;;;;;;;;5044322;28;20393;-62
2024/03/16 11:00:45;;;;;;;2.40;0.50;;;;;;;;;;5045532;28;20025;-62
2024/03/16 11:03:12;;;;;;;3.50;0.80;;;;;;;;;;5034656;28;20079;-62
2024/03/16 11:05:40;;;;;;;2.67;0.60;;;;;;;;;;5045322;28;20106;-62
2024/03/16 11:08:14;;;;;;;7.22;0.80;;;;;;;;;;5037732;28;20031;-62
2024/03/16 11:10:40;;;;;;;3.90;0.85;;;;;;;;;;5040062;28;20020;-61
2024/03/16 11:13:19;;;;;;;9.93;1.65;;;;;;;;;;5037203;28;20381;-61
2024/03/16 11:15:45;;;;;;;4.05;0.75;;;;;;;;;;5042389;28;20017;-63
2024/03/16 11:18:16;;;;;;;4.50;0.70;;;;;;;;;;5037625;28;20021;-61
2024/03/16 11:20:43;;;;;;;3.47;1.02;;;;;;;;;;5032241;28;20036;-62
2024/03/16 11:23:20;;;;;;;2.28;0.80;;;;;;;;;;5038080;28;20017;-62
2024/03/16 11:25:45;;;;;;;2.70;0.90;;;;;;;;;;5034413;28;20473;-63
2024/03/16 11:28:11;;;;;;;3.45;0.80;;;;;;;;;;5046975;28;20056;-63
2024/03/16 11:30:36;;;;;;;2.03;0.63;;;;;;;;;;5047409;28;20044;-62
2024/03/16 11:33:21;;;;;;;5.22;1.52;;;;;;;;;;5037821;28;20094;-62
2024/03/16 11:35:47;;;;;;;3.75;0.77;;;;;;;;;;5047823;28;20425;-62
2024/03/16 11:38:15;;;;;;;3.37;0.80;;;;;;;;;;5055022;28;20026;-62
2024/03/16 11:40:40;;;;;;;2.25;0.73;;;;;;;;;;5046925;28;20025;-62
2024/03/16 11:43:09;;;;;;;3.50;0.93;;;;;;;;;;5039790;28;20493;-64
2024/03/16 11:45:36;;;;;;;2.47;0.80;;;;;;;;;;5037755;28;20116;-61
2024/03/16 11:48:05;;;;;;;3.20;0.80;;;;;;;;;;5033964;28;20017;-62
2024/03/16 11:50:30;;;;;;;5.03;1.00;;;;;;;;;;5025084;28;20064;-62
2024/03/16 11:52:55;;;;;;;2.43;0.77;;;;;;;;;;5027633;28;20084;-61
2024/03/16 11:55:21;;;;;;;2.45;0.85;;;;;;;;;;5026673;28;20017;-61
2024/03/16 11:57:47;;;;;;;2.95;0.90;;;;;;;;;;5031255;28;20030;-61
2024/03/16 12:00:12;;;;;;;2.70;0.70;;;;;;;;;;5020624;28;20485;-61
2024/03/16 12:02:38;;;;;;;2.70;1.00;;;;;;;;;;5046948;28;20021;-63
2024/03/16 12:05:04;;;;;;;3.03;0.90;;;;;;;;;;5010016;28;20034;-62
2024/03/16 12:07:30;;;;;;;;;;;;;;;;;;5007916;28;20037;-61
2024/03/16 12:09:55;;;;;;;3.38;0.90;;;;;;;;;;5022863;28;19914;-62
2024/03/16 12:12:21;;;;;;;8.07;1.63;;;;;;;;;;5022928;28;20022;-64
2024/03/16 12:14:46;;;;;;;4.50;0.77;;;;;;;;;;5014809;28;20453;-63
2024/03/16 12:17:11;;;;;;;2.15;0.55;;;;;;;;;;5023564;28;20056;-62
2024/03/16 12:19:38;;;;;;;4.37;0.67;;;;;;;;;;5016574;28;20029;-62
2024/03/16 12:22:03;;;;;;;2.00;0.68;;;;;;;;;;5032286;28;20030;-62
2024/03/16 12:24:29;;;;;;;2.20;0.63;;;;;;;;;;5026793;28;20370;-62
2024/03/16 12:26:54;;;;;;;2.08;0.63;;;;;;;;;;5035716;28;20803;-62
2024/03/16 12:29:20;;;;;;;4.63;1.00;;;;;;;;;;5023710;28;20022;-62
2024/03/16 12:31:46;;;;;;;;;;;;;;;;;;5023260;28;20096;-61
2024/03/16 12:34:12;;;;;;;3.65;0.90;;;;;;;;;;5025797;28;19995;-62
2024/03/16 12:36:38;;;;;;;5.05;1.08;;;;;;;;;;5040531;28;20057;-64
2024/03/16 12:39:07;;;;;;;3.90;1.10;;;;;;;;;;5014075;28;20117;-62
2024/03/16 12:41:35;;;;;;;2.92;1.00;;;;;;;;;;5014730;28;20092;-62
2024/03/16 12:44:00;;;;;;;3.28;1.00;;;;;;;;;;5015252;28;20052;-62
2024/03/16 12:46:25;;;;;;;3.08;0.90;;;;;;;;;;5018154;28;20486;-62
2024/03/16 12:48:50;;;;;;;2.55;0.80;;;;;;;;;;5035664;28;20036;-62
2024/03/16 12:51:17;;;;;;;3.43;0.90;;;;;;;;;;5025305;28;20024;-61
2024/03/16 12:53:44;;;;;;;2.28;0.70;;;;;;;;;;5029106;28;20018;-62
2024/03/16 12:56:11;;;;;;;5.68;0.90;;;;;;;;;;5020740;28;20060;-61
2024/03/16 12:58:36;;;;;;;2.03;0.70;;;;;;;;;;5030447;28;20025;-61
2024/03/16 13:01:01;;;;;;;2.25;0.60;;;;;;;;;;5029327;28;20390;-62
2024/03/16 13:03:26;;;;;;;1.97;0.50;;;;;;;;;;5026608;28;20017;-62
2024/03/16 13:05:52;;;;;;;2.40;0.60;;;;;;;;;;5018246;28;20556;-61
2024/03/16 13:08:17;;;;;;;8.32;0.60;;;;;;;;;;5019144;28;20021;-62
2024/03/16 13:10:42;;;;;;;2.42;0.70;;;;;;;;;;5013907;28;20096;-60
2024/03/16 13:13:09;;;;;;;2.97;0.70;;;;;;;;;;5025063;28;20036;-60
2024/03/16 13:15:34;;;;;;;;;;;;;;;;;;5028605;28;20389;-62
2024/03/16 13:18:00;;;;;;;2.97;0.50;;;;;;;;;;5023105;28;19909;-63
2024/03/16 13:20:25;;;;;;;2.47;0.70;;;;;;;;;;5016610;28;20057;-60
2024/03/16 13:22:50;;;;;;;1.90;0.65;;;;;;;;;;5010824;28;20032;-63
2024/03/16 13:25:15;;;;;;;3.10;0.73;;;;;;;;;;5026070;28;20060;-62
2024/03/16 13:27:41;;;;;;;2.08;0.75;;;;;;;;;;5029973;28;20075;-61
2024/03/16 13:30:07;;;;;;;2.38;0.95;;;;;;;;;;5031302;28;20017;-62
2024/03/16 13:32:33;;;;;;;3.00;0.90;;;;;;;;;;5032859;28;20334;-61
2024/03/16 13:34:58;;;;;;;2.58;0.80;;;;;;;;;;5024587;28;20022;-61
2024/03/16 13:37:24;;;;;;;2.20;0.88;;;;;;;;;;5017242;28;20437;-61
2024/03/16 13:39:49;;;;;;;2.63;0.80;;;;;;;;;;5021228;28;20032;-61
2024/03/16 13:42:15;;;;;;;2.27;0.80;;;;;;;;;;5012042;28;20433;-61
2024/03/16 13:44:42;;;;;;;2.70;0.80;;;;;;;;;;5028072;28;20013;-61
2024/03/16 13:47:08;;;;;;;2.88;0.70;;;;;;;;;;5026789;28;20032;-61
2024/03/16 13:49:35;;;;;;;1.90;0.60;;;;;;;;;;5022368;28;20017;-63
2024/03/16 13:52:00;;;;;;;3.30;0.70;;;;;;;;;;5018221;28;20104;-61
2024/03/16 13:54:25;;;;;;;2.17;0.77;;;;;;;;;;5020103;28;20105;-62
2024/03/16 13:56:50;;;;;;;2.07;0.70;;;;;;;;;;5023837;28;20021;-62
2024/03/16 13:59:16;;;;;;;2.25;0.68;;;;;;;;;;5014522;28;20028;-61
2024/03/16 14:01:41;;;;;;;3.13;0.60;;;;;;;;;;5021487;28;20025;-63
2024/03/16 14:04:08;;;;;;;1.03;0.30;;;;;;;;;;5019308;28;20014;-62
2024/03/16 14:06:33;;;;;;;;;;;;;;;;;;5019654;28;20021;-61
2024/03/16 14:08:58;;;;;;;1.38;0.40;;;;;;;;;;5027874;28;19909;-62
2024/03/16 14:11:24;;;;;;;2.63;0.60;;;;;;;;;;5037319;28;20547;-61
2024/03/16 14:13:49;;;;;;;2.88;0.80;;;;;;;;;;5028540;28;20084;-61
2024/03/16 14:16:15;;;;;;;3.03;0.87;;;;;;;;;;5018581;28;20040;-61
2024/03/16 14:18:41;;;;;;;;;;;;;;;;;;5035161;28;20443;-62
2024/03/16 14:21:06;;;;;;;3.75;1.15;;;;;;;;;;5029288;28;19909;-61
2024/03/16 14:23:31;;;;;;;2.90;0.90;;;;;;;;;;5030816;28;20020;-62
2024/03/16 14:25:57;;;;;;;3.17;1.10;;;;;;;;;;5015193;28;20398;-63
2024/03/16 14:28:22;;;;;;;3.78;1.50;;;;;;;;;;5014878;28;20066;-61
2024/03/16 14:30:47;;;;;;;5.18;1.52;;;;;;;;;;5023053;28;20072;-62
2024/03/16 14:33:16;;;;;;;4.53;1.70;;;;;;;;;;5024825;28;20037;-62
2024/03/16 14:35:41;;;;;;;5.25;1.77;;;;;;;;;;5025157;28;20021;-62
2024/03/16 14:38:07;;;;;;;4.50;1.63;;;;;;;;;;5020450;28;20084;-62
2024/03/16 14:40:32;;;;;;;6.43;1.60;;;;;;;;;;5029559;28;20026;-62
2024/03/16 14:42:58;;;;;;;5.73;2.50;;;;;;;;;;5027009;28;20383;-62
2024/03/16 14:45:23;;;;;;;17.95;3.53;;;;;;;;;;5025960;28;20022;-63
2024/03/16 14:47:48;;;;;;;8.15;2.30;;;;;;;;;;5027748;28;20014;-63
2024/03/16 14:50:13;;;;;;;6.77;2.30;;;;;;;;;;5027445;28;20017;-61
2024/03/16 14:52:41;;;;;;;8.20;2.87;;;;;;;;;;5020288;28;20043;-62
2024/03/16 14:55:06;;;;;;;6.53;2.70;;;;;;;;;;5017131;28;20014;-62
2024/03/16 14:57:34;;;;;;;8.37;2.97;;;;;;;;;;5040333;28;20018;-61
2024/03/16 14:59:59;;;;;;;7.40;3.20;;;;;;;;;;5025566;28;20867;-63
2024/03/16 15:02:24;;;;;;;6.82;3.17;;;;;;;;;;5024110;28;20026;-64
2024/03/16 15:04:49;;;;;;;6.22;2.92;;;;;;;;;;5022098;28;20033;-62
2024/03/16 15:07:15;;;;;;;7.40;3.13;;;;;;;;;;5021315;28;20484;-62
2024/03/16 15:09:40;;;;;;;6.75;3.08;;;;;;;;;;5018833;28;20029;-62
2024/03/16 15:12:05;;;;;;;7.38;3.28;;;;;;;;;;5017960;28;20025;-62
2024/03/16 15:14:30;;;;;;;7.30;3.25;;;;;;;;;;5015002;28;20033;-62
2024/03/16 15:16:56;;;;;;;7.27;3.00;;;;;;;;;;5004035;28;20030;-63
2024/03/16 15:19:22;;;;;;;7.73;3.50;;;;;;;;;;5013476;28;20473;-62
2024/03/16 15:21:48;;;;;;;7.82;3.70;;;;;;;;;;5015608;28;20018;-62
2024/03/16 15:24:20;;;;;;;6.63;3.28;;;;;;;;;;5011664;28;20041;-63
2024/03/16 15:26:53;;;;;;;7.00;3.13;;;;;;;;;;5014461;28;20025;-62
2024/03/16 15:29:18;;;;;;;6.47;3.17;;;;;;;;;;5009446;28;20098;-62
2024/03/16 15:31:43;;;;;;;8.00;3.70;;;;;;;;;;5015290;28;20045;-61
2024/03/16 15:34:08;;;;;;;7.07;3.25;;;;;;;;;;5016516;28;20041;-63
2024/03/16 15:36:33;;;;;;;8.32;3.22;;;;;;;;;;5019589;28;20030;-62
2024/03/16 15:38:59;;;;;;;6.75;3.22;;;;;;;;;;5013039;28;20021;-62
2024/03/16 15:41:24;;;;;;;7.07;2.80;;;;;;;;;;5014200;28;20057;-62
2024/03/16 15:43:49;;;;;;;7.70;2.67;;;;;;;;;;5020059;28;20018;-63
2024/03/16 15:46:14;;;;;;;8.70;3.30;;;;;;;;;;5024685;28;20104;-63
2024/03/16 15:48:39;;;;;;;7.10;3.00;;;;;;;;;;5022840;28;20025;-64
2024/03/16 15:51:04;;;;;;;5.53;2.83;;;;;;;;;;5031699;28;20045;-62
2024/03/16 15:53:30;;;;;;;5.93;2.50;;;;;;;;;;5028053;28;20021;-63
2024/03/16 15:56:04;;;;;;;6.93;2.70;;;;;;;;;;5025611;28;20034;-65
2024/03/16 15:58:31;;;;;;;5.78;2.38;;;;;;;;;;5021679;28;20018;-61
2024/03/16 16:00:56;;;;;;;8.02;2.80;;;;;;;;;;5021829;28;20034;-62
2024/03/16 16:03:22;;;;;;;6.60;2.60;;;;;;;;;;5027856;28;20060;-63
2024/03/16 16:05:49;;;;;;;6.57;2.40;;;;;;;;;;5032663;28;20040;-64
2024/03/16 16:08:14;;;;;;;6.47;2.60;;;;;;;;;;5022366;28;20025;-65
2024/03/16 16:10:40;;;;;;;7.43;2.80;;;;;;;;;;5035589;28;20106;-64
2024/03/16 16:13:09;;;;;;;6.50;2.50;;;;;;;;;;5039885;28;20025;-63
2024/03/16 16:15:35;;;;;;;7.53;2.30;;;;;;;;;;5017687;28;20022;-62
2024/03/16 16:18:00;;;;;;;6.28;2.60;;;;;;;;;;5028937;28;20432;-62
2024/03/16 16:20:25;;;;;;;6.43;2.30;;;;;;;;;;5014154;28;20083;-63
2024/03/16 16:22:52;;;;;;;7.55;2.45;;;;;;;;;;5013286;28;20071;-62
2024/03/16 16:25:18;;;;;;;7.35;1.90;;;;;;;;;;5008683;28;20029;-64